createdAt,value
2018-12-11T00:01:35.329Z,99820.00
2018-12-11T00:04:03.534Z,99805.00
2018-12-11T00:06:31.773Z,99822.00
2018-12-11T00:08:59.997Z,99809.00
2018-12-11T00:11:28.267Z,99806.00
2018-12-11T00:13:56.531Z,99809.00
2018-12-11T00:16:24.815Z,99817.00
2018-12-11T00:18:53.351Z,99808.00
2018-12-11T00:21:21.677Z,99810.00
2018-12-11T00:23:49.851Z,99810.00
2018-12-11T00:26:18.026Z,99804.00
2018-12-11T00:28:46.312Z,99805.00
2018-12-11T00:31:14.573Z,99801.00
2018-12-11T00:33:42.857Z,99795.00
2018-12-11T00:36:11.093Z,99805.00
2018-12-11T00:38:39.391Z,99790.00
2018-12-11T00:41:07.729Z,99789.00
2018-12-11T00:43:35.952Z,99798.00
2018-12-11T00:46:04.221Z,99803.00
2018-12-11T00:48:32.403Z,99798.00
2018-12-11T00:51:00.962Z,99794.00
2018-12-11T00:53:29.160Z,99802.00
2018-12-11T00:55:57.422Z,99798.00
2018-12-11T00:58:25.706Z,99796.00
2018-12-11T01:00:53.998Z,99799.00
2018-12-11T01:03:22.255Z,99801.00
2018-12-11T01:05:50.537Z,99798.00
2018-12-11T01:08:18.696Z,99798.00
2018-12-11T01:10:46.996Z,99808.00
2018-12-11T01:13:15.251Z,99803.00
2018-12-11T01:15:43.445Z,99807.00
2018-12-11T01:18:11.703Z,99808.00
2018-12-11T01:20:39.895Z,99808.00
2018-12-11T01:23:08.153Z,99811.00
2018-12-11T01:25:36.637Z,99807.00
2018-12-11T01:28:04.993Z,99805.00
2018-12-11T01:30:33.236Z,99821.00
2018-12-11T01:33:01.390Z,99807.00
2018-12-11T01:35:29.566Z,99810.00
2018-12-11T01:37:57.797Z,99817.00
2018-12-11T01:40:26.077Z,99808.00
2018-12-11T01:42:54.241Z,99818.00
2018-12-11T01:45:22.452Z,99809.00
2018-12-11T01:47:50.734Z,99806.00
2018-12-11T01:50:18.984Z,99818.00
2018-12-11T01:52:47.204Z,99823.00
2018-12-11T01:55:15.374Z,99819.00
2018-12-11T01:57:43.652Z,99828.00
2018-12-11T02:00:11.910Z,99827.00
2018-12-11T02:02:40.256Z,99823.00
2018-12-11T02:05:08.468Z,99820.00
2018-12-11T02:07:36.706Z,99826.00
2018-12-11T02:10:05.387Z,99828.00
2018-12-11T02:12:33.723Z,99828.00
2018-12-11T02:15:01.983Z,99826.00
2018-12-11T02:17:30.160Z,99832.00
2018-12-11T02:19:58.381Z,99828.00
2018-12-11T02:22:26.973Z,99828.00
2018-12-11T02:24:55.248Z,99818.00
2018-12-11T02:27:23.560Z,99825.00
2018-12-11T02:29:51.801Z,99823.00
2018-12-11T02:32:20.081Z,99822.00
2018-12-11T02:34:48.435Z,99819.00
2018-12-11T02:37:17.066Z,99824.00
2018-12-11T02:39:45.426Z,99827.00
2018-12-11T02:42:13.677Z,99825.00
2018-12-11T02:44:41.964Z,99818.00
2018-12-11T02:47:10.140Z,99826.00
2018-12-11T02:49:38.365Z,99809.00
2018-12-11T02:52:06.576Z,99824.00
2018-12-11T02:54:34.808Z,99819.00
2018-12-11T02:57:03.030Z,99819.00
2018-12-11T02:59:31.255Z,99808.00
2018-12-11T03:01:59.416Z,99825.00
2018-12-11T03:04:27.651Z,99812.00
2018-12-11T03:06:55.820Z,99820.00
2018-12-11T03:09:23.992Z,99817.00
2018-12-11T03:11:52.270Z,99804.00
2018-12-11T03:14:20.511Z,99809.00
2018-12-11T03:16:48.684Z,99804.00
2018-12-11T03:19:16.883Z,99811.00
2018-12-11T03:21:45.080Z,99801.00
2018-12-11T03:24:13.307Z,99802.00
2018-12-11T03:26:41.764Z,99808.00
2018-12-11T03:29:09.993Z,99794.00
2018-12-11T03:31:38.283Z,99807.00
2018-12-11T03:34:06.542Z,99802.00
2018-12-11T03:36:34.828Z,99798.00
2018-12-11T03:39:03.282Z,99808.00
2018-12-11T03:41:31.552Z,99799.00
2018-12-11T03:43:59.713Z,99797.00
2018-12-11T03:46:28.132Z,99795.00
2018-12-11T03:48:56.337Z,99797.00
2018-12-11T03:51:25.252Z,99789.00
2018-12-11T03:53:53.673Z,99792.00
2018-12-11T03:56:21.969Z,99790.00
2018-12-11T03:58:50.157Z,99785.00
2018-12-11T04:01:18.398Z,99781.00
2018-12-11T04:03:46.674Z,99780.00
2018-12-11T04:06:14.947Z,99784.00
2018-12-11T04:08:43.161Z,99780.00
2018-12-11T04:11:11.394Z,99774.00
2018-12-11T04:13:39.573Z,99778.00
2018-12-11T04:16:07.897Z,99776.00
2018-12-11T04:18:36.097Z,99772.00
2018-12-11T04:21:04.416Z,99771.00
2018-12-11T04:23:32.677Z,99776.00
2018-12-11T04:26:00.994Z,99770.00
2018-12-11T04:28:29.218Z,99775.00
2018-12-11T04:30:57.414Z,99775.00
2018-12-11T04:33:25.663Z,99769.00
2018-12-11T04:35:53.876Z,99763.00
2018-12-11T04:38:22.129Z,99768.00
2018-12-11T04:40:50.401Z,99769.00
2018-12-11T04:43:18.678Z,99763.00
2018-12-11T04:45:46.885Z,99760.00
2018-12-11T04:48:15.224Z,99767.00
2018-12-11T04:50:43.494Z,99759.00
2018-12-11T04:53:11.720Z,99759.00
2018-12-11T04:55:39.939Z,99763.00
2018-12-11T04:58:08.149Z,99756.00
2018-12-11T05:00:36.396Z,99761.00
2018-12-11T05:03:04.668Z,99763.00
2018-12-11T05:05:32.957Z,99758.00
2018-12-11T05:08:03.572Z,99763.00
2018-12-11T05:10:31.757Z,99766.00
2018-12-11T05:12:59.945Z,99747.00
2018-12-11T05:15:28.151Z,99750.00
2018-12-11T05:17:56.341Z,99752.00
2018-12-11T05:20:24.575Z,99754.00
2018-12-11T05:22:52.771Z,99753.00
2018-12-11T05:25:21.000Z,99749.00
2018-12-11T05:27:49.172Z,99754.00
2018-12-11T05:30:17.432Z,99751.00
2018-12-11T05:32:45.676Z,99744.00
2018-12-11T05:35:13.931Z,99750.00
2018-12-11T05:37:42.213Z,99748.00
2018-12-11T05:40:10.426Z,99746.00
2018-12-11T05:42:38.704Z,99747.00
2018-12-11T05:45:07.027Z,99743.00
2018-12-11T05:47:35.207Z,99747.00
2018-12-11T05:50:04.261Z,99745.00
2018-12-11T05:52:32.464Z,99744.00
2018-12-11T05:55:00.965Z,99742.00
2018-12-11T05:57:29.195Z,99744.00
2018-12-11T05:59:57.463Z,99743.00
2018-12-11T06:02:25.726Z,99739.00
2018-12-11T06:04:54.021Z,99740.00
2018-12-11T06:07:22.284Z,99733.00
2018-12-11T06:09:50.556Z,99749.00
2018-12-11T06:12:19.302Z,99739.00
2018-12-11T06:14:47.521Z,99746.00
2018-12-11T06:17:15.688Z,99736.00
2018-12-11T06:19:43.969Z,99743.00
2018-12-11T06:22:12.165Z,99741.00
2018-12-11T06:24:40.666Z,99745.00
2018-12-11T06:27:08.914Z,99748.00
2018-12-11T06:29:37.108Z,99748.00
2018-12-11T06:32:06.116Z,99746.00
2018-12-11T06:34:34.294Z,99744.00
2018-12-11T06:37:02.721Z,99743.00
2018-12-11T06:39:30.996Z,99743.00
2018-12-11T06:41:59.287Z,99747.00
2018-12-11T06:44:27.547Z,99747.00
2018-12-11T06:46:56.537Z,99747.00
2018-12-11T06:49:25.449Z,99739.00
2018-12-11T06:51:53.698Z,99745.00
2018-12-11T06:54:21.949Z,99749.00
2018-12-11T06:56:50.198Z,99741.00
2018-12-11T06:59:18.400Z,99757.00
2018-12-11T07:01:46.597Z,99742.00
2018-12-11T07:04:14.882Z,99736.00
2018-12-11T07:06:43.139Z,99734.00
2018-12-11T07:09:11.423Z,99744.00
2018-12-11T07:11:40.475Z,99749.00
2018-12-11T07:14:08.679Z,99734.00
2018-12-11T07:16:36.903Z,99739.00
2018-12-11T07:19:05.224Z,99735.00
2018-12-11T07:21:33.434Z,99745.00
2018-12-11T07:24:01.688Z,99742.00
2018-12-11T07:26:29.922Z,99750.00
2018-12-11T07:28:58.137Z,99741.00
2018-12-11T07:31:26.313Z,99741.00
2018-12-11T07:33:54.525Z,99742.00
2018-12-11T07:36:22.752Z,99742.00
2018-12-11T07:38:50.919Z,99738.00
2018-12-11T07:41:19.179Z,99738.00
2018-12-11T07:43:47.481Z,99739.00
2018-12-11T07:46:15.753Z,99736.00
2018-12-11T07:48:44.037Z,99740.00
2018-12-11T07:51:12.252Z,99740.00
2018-12-11T07:53:40.481Z,99741.00
2018-12-11T07:56:08.660Z,99737.00
2018-12-11T07:58:36.851Z,99750.00
2018-12-11T08:01:05.101Z,99750.00
2018-12-11T08:03:33.381Z,99745.00
2018-12-11T08:06:01.650Z,99745.00
2018-12-11T08:08:29.909Z,99752.00
2018-12-11T08:10:58.102Z,99752.00
2018-12-11T08:13:26.402Z,99754.00
2018-12-11T08:15:54.656Z,99754.00
2018-12-11T08:25:10.583Z,99772.00
2018-12-11T08:27:38.748Z,99768.00
2018-12-11T08:30:07.516Z,99764.00
2018-12-11T08:32:35.812Z,99779.00
2018-12-11T08:35:04.514Z,99770.00
2018-12-11T08:37:32.790Z,99776.00
2018-12-11T08:40:01.480Z,99772.00
2018-12-11T08:42:29.689Z,99774.00
2018-12-11T08:44:59.284Z,99772.00
2018-12-11T08:47:27.923Z,99772.00
2018-12-11T08:49:56.156Z,99772.00
2018-12-11T08:52:24.648Z,99775.00
2018-12-11T08:54:53.008Z,99778.00
2018-12-11T08:57:21.477Z,99775.00
2018-12-11T08:59:49.697Z,99770.00
2018-12-11T09:02:17.956Z,99777.00
2018-12-11T09:04:46.169Z,99780.00
2018-12-11T09:07:14.438Z,99772.00
2018-12-11T09:09:42.772Z,99781.00
2018-12-11T09:12:11.773Z,99796.00
2018-12-11T09:14:40.030Z,99788.00
2018-12-11T09:17:10.264Z,99796.00
2018-12-11T09:19:39.774Z,99787.00
2018-12-11T09:22:08.134Z,99798.00
2018-12-11T09:24:36.677Z,99796.00
2018-12-11T09:27:05.058Z,99800.00
2018-12-11T09:29:33.805Z,99795.00
2018-12-11T09:32:02.942Z,99804.00
2018-12-11T09:34:31.268Z,99798.00
2018-12-11T09:36:59.477Z,99797.00
2018-12-11T09:39:27.654Z,99805.00
2018-12-11T09:41:55.840Z,99806.00
2018-12-11T09:44:24.108Z,99803.00
2018-12-11T09:46:52.272Z,99802.00
2018-12-11T09:49:20.552Z,99804.00
2018-12-11T09:51:48.818Z,99804.00
2018-12-11T09:54:17.191Z,99806.00
2018-12-11T09:56:45.741Z,99810.00
2018-12-11T09:59:14.194Z,99808.00
2018-12-11T10:01:46.179Z,99811.00
2018-12-11T10:04:15.664Z,99812.00
2018-12-11T10:09:19.543Z,99807.00
2018-12-11T10:11:47.746Z,99818.00
2018-12-11T10:14:15.908Z,99813.00
2018-12-11T10:16:44.190Z,99809.00
2018-12-11T10:19:12.383Z,99822.00
2018-12-11T10:21:40.625Z,99810.00
2018-12-11T10:24:08.899Z,99825.00
2018-12-11T10:26:37.258Z,99826.00
2018-12-11T10:29:05.516Z,99820.00
2018-12-11T10:31:33.830Z,99825.00
2018-12-11T10:34:02.169Z,99826.00
2018-12-11T10:36:30.482Z,99825.00
2018-12-11T10:38:58.649Z,99820.00
2018-12-11T10:41:26.817Z,99826.00
2018-12-11T10:43:55.104Z,99827.00
2018-12-11T10:46:23.385Z,99824.00
2018-12-11T10:48:51.548Z,99837.00
2018-12-11T10:51:20.250Z,99826.00
2018-12-11T10:53:49.233Z,99837.00
2018-12-11T10:56:18.230Z,99842.00
2018-12-11T10:58:46.497Z,99839.00
2018-12-11T11:01:18.098Z,99841.00
2018-12-11T11:03:46.632Z,99843.00
2018-12-11T11:06:14.795Z,99848.00
2018-12-11T11:08:43.711Z,99838.00
2018-12-11T11:11:12.073Z,99851.00
2018-12-11T11:13:40.254Z,99850.00
2018-12-11T11:16:10.396Z,99861.00
2018-12-11T11:18:38.955Z,99852.00
2018-12-11T11:21:07.282Z,99862.00
2018-12-11T11:23:35.512Z,99858.00
2018-12-11T11:26:04.160Z,99871.00
2018-12-11T11:28:32.370Z,99872.00
2018-12-11T11:31:00.566Z,99878.00
2018-12-11T11:33:28.905Z,99878.00
2018-12-11T11:35:57.086Z,99882.00
2018-12-11T11:38:25.489Z,99883.00
2018-12-11T11:40:53.733Z,99892.00
2018-12-11T11:43:21.901Z,99894.00
2018-12-11T11:45:50.063Z,99888.00
2018-12-11T11:48:18.351Z,99894.00
2018-12-11T11:50:46.543Z,99894.00
2018-12-11T11:53:14.809Z,99902.00
2018-12-11T11:55:43.088Z,99912.00
2018-12-11T11:58:12.182Z,99905.00
2018-12-11T12:00:40.533Z,99915.00
2018-12-11T12:03:08.981Z,99915.00
2018-12-11T12:05:37.247Z,99914.00
2018-12-11T12:08:05.471Z,99922.00
2018-12-11T12:10:33.888Z,99926.00
2018-12-11T12:13:02.131Z,99916.00
2018-12-11T12:15:30.322Z,99930.00
2018-12-11T12:17:59.357Z,99926.00
2018-12-11T12:20:27.524Z,99924.00
2018-12-11T12:22:56.619Z,99928.00
2018-12-11T12:25:25.124Z,99928.00
2018-12-11T12:27:53.374Z,99926.00
2018-12-11T12:30:23.242Z,99927.00
2018-12-11T12:32:51.526Z,99925.00
2018-12-11T12:35:19.752Z,99934.00
2018-12-11T12:37:48.010Z,99944.00
2018-12-11T12:40:17.147Z,99948.00
2018-12-11T12:42:45.316Z,99955.00
2018-12-11T12:45:13.608Z,99949.00
2018-12-11T12:47:41.899Z,99969.00
2018-12-11T12:50:10.114Z,99964.00
2018-12-11T12:52:38.283Z,99974.00
2018-12-11T12:55:06.605Z,99977.00
2018-12-11T12:57:34.782Z,99978.00
2018-12-11T13:00:03.986Z,99987.00
2018-12-11T13:02:32.175Z,99982.00
2018-12-11T13:05:00.429Z,99979.00
2018-12-11T13:07:28.679Z,99982.00
2018-12-11T13:09:56.979Z,99983.00
2018-12-11T13:12:25.290Z,99979.00
2018-12-11T13:14:53.543Z,99987.00
2018-12-11T13:17:21.732Z,99996.00
2018-12-11T13:19:49.909Z,100002.00
2018-12-11T13:22:18.162Z,100004.00
2018-12-11T13:24:46.425Z,100016.00
2018-12-11T13:27:14.599Z,100011.00
2018-12-11T13:29:42.783Z,100010.00
2018-12-11T13:32:11.039Z,100016.00
2018-12-11T13:34:39.217Z,100020.00
2018-12-11T13:37:07.487Z,100018.00
2018-12-11T13:39:35.778Z,100021.00
2018-12-11T13:42:05.218Z,100024.00
2018-12-11T13:44:34.379Z,100023.00
2018-12-11T13:47:02.712Z,100020.00
2018-12-11T13:49:30.889Z,100033.00
2018-12-11T13:51:59.367Z,100036.00
2018-12-11T13:54:27.543Z,100039.00
2018-12-11T13:56:55.712Z,100048.00
2018-12-11T13:59:23.903Z,100055.00
2018-12-11T14:01:52.068Z,100051.00
2018-12-11T14:04:20.404Z,100054.00
2018-12-11T14:06:48.873Z,100051.00
2018-12-11T14:12:14.894Z,100060.00
2018-12-11T14:14:43.157Z,100068.00
2018-12-11T14:17:11.440Z,100074.00
2018-12-11T14:19:39.706Z,100086.00
2018-12-11T14:22:07.989Z,100075.00
2018-12-11T14:24:36.188Z,100079.00
2018-12-11T14:27:04.465Z,100090.00
2018-12-11T14:29:32.871Z,100084.00
2018-12-11T14:32:01.345Z,100083.00
2018-12-11T14:34:29.557Z,100091.00
2018-12-11T14:36:57.745Z,100090.00
2018-12-11T14:39:26.029Z,100092.00
2018-12-11T14:41:54.261Z,100097.00
2018-12-11T14:44:22.565Z,100099.00
2018-12-11T14:46:50.852Z,100103.00
2018-12-11T14:49:19.045Z,100105.00
2018-12-11T14:51:47.209Z,100109.00
2018-12-11T14:54:15.832Z,100107.00
2018-12-11T14:56:47.354Z,100118.00
2018-12-11T14:59:17.609Z,100123.00
2018-12-11T15:01:47.003Z,100120.00
2018-12-11T15:04:17.142Z,100122.00
2018-12-11T15:06:52.906Z,100121.00
2018-12-11T15:09:27.207Z,100128.00
2018-12-11T15:11:57.312Z,100123.00
2018-12-11T15:14:28.429Z,100128.00
2018-12-11T15:16:57.013Z,100138.00
2018-12-11T15:19:25.777Z,100127.00
2018-12-11T15:21:54.252Z,100138.00
2018-12-11T15:24:24.047Z,100134.00
2018-12-11T15:26:53.899Z,100129.00
2018-12-11T15:29:22.141Z,100135.00
2018-12-11T15:31:50.397Z,100148.00
2018-12-11T15:34:18.608Z,100155.00
2018-12-11T15:36:46.878Z,100162.00
2018-12-11T15:39:15.146Z,100160.00
2018-12-11T15:41:43.314Z,100160.00
2018-12-11T15:44:11.502Z,100169.00
2018-12-11T15:46:40.042Z,100175.00
2018-12-11T15:49:08.231Z,100182.00
2018-12-11T15:51:36.572Z,100181.00
2018-12-11T15:54:04.792Z,100184.00
2018-12-11T15:56:33.005Z,100186.00
2018-12-11T15:59:01.297Z,100186.00
2018-12-11T16:01:29.678Z,100188.00
2018-12-11T16:03:57.950Z,100202.00
2018-12-11T16:06:26.111Z,100185.00
2018-12-11T16:08:54.479Z,100191.00
2018-12-11T16:11:22.726Z,100203.00
2018-12-11T16:13:50.914Z,100203.00
2018-12-11T16:16:19.217Z,100202.00
2018-12-11T16:18:47.390Z,100200.00
2018-12-11T16:21:15.627Z,100208.00
2018-12-11T16:23:44.003Z,100205.00
2018-12-11T16:26:12.277Z,100216.00
2018-12-11T16:28:40.445Z,100215.00
2018-12-11T16:31:08.887Z,100215.00
2018-12-11T16:33:37.099Z,100213.00
2018-12-11T16:36:05.316Z,100214.00
2018-12-11T16:38:33.537Z,100219.00
2018-12-11T16:41:01.729Z,100214.00
2018-12-11T16:43:29.994Z,100225.00
2018-12-11T16:45:58.193Z,100223.00
2018-12-11T16:48:26.452Z,100230.00
2018-12-11T16:50:54.732Z,100232.00
2018-12-11T16:53:22.996Z,100228.00
2018-12-11T16:55:51.190Z,100236.00
2018-12-11T16:58:19.452Z,100238.00
2018-12-11T17:00:47.665Z,100241.00
2018-12-11T17:03:15.947Z,100239.00
2018-12-11T17:05:44.144Z,100242.00
2018-12-11T17:08:12.455Z,100245.00
2018-12-11T17:10:40.620Z,100252.00
2018-12-11T17:13:08.892Z,100255.00
2018-12-11T17:15:38.253Z,100257.00
2018-12-11T17:18:06.689Z,100261.00
2018-12-11T17:20:35.136Z,100270.00
2018-12-11T17:23:03.339Z,100268.00
2018-12-11T17:25:31.514Z,100273.00
2018-12-11T17:27:59.789Z,100276.00
2018-12-11T17:30:28.024Z,100275.00
2018-12-11T17:32:56.412Z,100286.00
2018-12-11T17:35:24.607Z,100278.00
2018-12-11T17:37:52.846Z,100276.00
2018-12-11T17:40:21.055Z,100275.00
2018-12-11T17:42:49.288Z,100276.00
2018-12-11T17:45:18.987Z,100286.00
2018-12-11T17:47:47.162Z,100288.00
2018-12-11T17:50:15.393Z,100289.00
2018-12-11T17:52:43.668Z,100286.00
2018-12-11T17:55:12.705Z,100291.00
2018-12-11T17:57:40.982Z,100292.00
2018-12-11T18:00:10.485Z,100292.00
2018-12-11T18:02:41.019Z,100295.00
2018-12-11T18:05:09.828Z,100297.00
2018-12-11T18:07:38.079Z,100305.00
2018-12-11T18:10:06.489Z,100293.00
2018-12-11T18:12:34.728Z,100298.00
2018-12-11T18:15:02.943Z,100308.00
2018-12-11T18:17:32.118Z,100301.00
2018-12-11T18:20:00.332Z,100313.00
2018-12-11T18:22:28.536Z,100316.00
2018-12-11T18:24:56.781Z,100312.00
2018-12-11T18:27:25.084Z,100315.00
2018-12-11T18:29:53.617Z,100326.00
2018-12-11T18:32:25.100Z,100316.00
2018-12-11T18:34:52.497Z,100323.00
2018-12-11T18:37:20.918Z,100321.00
2018-12-11T18:39:49.349Z,100331.00
2018-12-11T18:42:18.138Z,100323.00
2018-12-11T18:44:46.553Z,100342.00
2018-12-11T18:47:15.192Z,100334.00
2018-12-11T18:49:43.571Z,100339.00
2018-12-11T18:52:12.424Z,100330.00
2018-12-11T18:54:41.813Z,100333.00
2018-12-11T18:57:11.068Z,100337.00
2018-12-11T18:59:39.327Z,100331.00
2018-12-11T19:02:07.662Z,100340.00
2018-12-11T19:04:36.591Z,100342.00
2018-12-11T19:07:04.943Z,100336.00
2018-12-11T19:09:33.130Z,100342.00
2018-12-11T19:12:01.313Z,100346.00
2018-12-11T19:14:29.549Z,100344.00
2018-12-11T19:16:57.812Z,100340.00
2018-12-11T19:19:26.482Z,100347.00
2018-12-11T19:21:55.351Z,100343.00
2018-12-11T19:24:23.691Z,100343.00
2018-12-11T19:26:52.056Z,100356.00
2018-12-11T19:29:20.341Z,100356.00
2018-12-11T19:31:48.680Z,100353.00
2018-12-11T19:34:16.997Z,100352.00
2018-12-11T19:36:45.289Z,100352.00
2018-12-11T19:39:13.759Z,100361.00
2018-12-11T19:41:41.935Z,100362.00
2018-12-11T19:44:10.369Z,100362.00
2018-12-11T19:46:40.155Z,100363.00
2018-12-11T19:49:09.219Z,100363.00
2018-12-11T19:51:37.540Z,100364.00
2018-12-11T19:54:05.890Z,100364.00
2018-12-11T19:56:34.410Z,100371.00
2018-12-11T19:59:02.713Z,100368.00
2018-12-11T20:01:31.007Z,100379.00
2018-12-11T20:03:59.214Z,100378.00
2018-12-11T20:06:27.756Z,100388.00
2018-12-11T20:08:56.131Z,100377.00
2018-12-11T20:11:24.934Z,100378.00
2018-12-11T20:13:53.543Z,100384.00
2018-12-11T20:16:21.766Z,100390.00
2018-12-11T20:18:52.829Z,100385.00
2018-12-11T20:21:21.132Z,100381.00
2018-12-11T20:23:49.341Z,100382.00
2018-12-11T20:26:21.660Z,100396.00
2018-12-11T20:28:50.664Z,100388.00
2018-12-11T20:31:18.899Z,100389.00
2018-12-11T20:33:48.780Z,100393.00
2018-12-11T20:36:18.579Z,100390.00
2018-12-11T20:38:46.836Z,100384.00
2018-12-11T20:41:15.423Z,100393.00
2018-12-11T20:43:44.693Z,100395.00
2018-12-11T20:46:13.084Z,100399.00
2018-12-11T20:48:42.908Z,100396.00
2018-12-11T20:51:12.003Z,100406.00
2018-12-11T20:53:41.545Z,100401.00
2018-12-11T20:56:09.887Z,100397.00
2018-12-11T20:58:39.417Z,100396.00
2018-12-11T21:01:09.412Z,100397.00
2018-12-11T21:03:37.738Z,100405.00
2018-12-11T21:06:08.622Z,100400.00
2018-12-11T21:08:37.046Z,100402.00
2018-12-11T21:11:05.979Z,100398.00
2018-12-11T21:13:34.265Z,100407.00
2018-12-11T21:16:02.666Z,100414.00
2018-12-11T21:18:31.124Z,100414.00
2018-12-11T21:20:59.503Z,100417.00
2018-12-11T21:23:28.621Z,100419.00
2018-12-11T21:25:57.752Z,100419.00
2018-12-11T21:28:28.953Z,100427.00
2018-12-11T21:30:58.234Z,100421.00
2018-12-11T21:33:27.123Z,100420.00
2018-12-11T21:35:55.911Z,100417.00
2018-12-11T21:38:24.221Z,100421.00
2018-12-11T21:40:53.288Z,100423.00
2018-12-11T21:43:21.564Z,100423.00
2018-12-11T21:45:50.331Z,100424.00
2018-12-11T21:48:19.633Z,100428.00
2018-12-11T21:50:49.033Z,100433.00
2018-12-11T21:53:18.055Z,100430.00
2018-12-11T21:55:46.323Z,100431.00
2018-12-11T21:58:14.794Z,100424.00
2018-12-11T22:00:43.086Z,100436.00
2018-12-11T22:03:11.755Z,100430.00
2018-12-11T22:05:41.749Z,100430.00
2018-12-11T22:08:09.938Z,100431.00
2018-12-11T22:10:38.412Z,100433.00
2018-12-11T22:13:06.666Z,100433.00
2018-12-11T22:15:34.955Z,100429.00
2018-12-11T22:18:03.155Z,100429.00
2018-12-11T22:20:31.423Z,100429.00
2018-12-11T22:22:59.672Z,100434.00
2018-12-11T22:25:27.873Z,100437.00
2018-12-11T22:27:56.095Z,100435.00
2018-12-11T22:30:24.386Z,100438.00
2018-12-11T22:32:52.699Z,100434.00
2018-12-11T22:35:21.038Z,100440.00
2018-12-11T22:37:49.226Z,100442.00
2018-12-11T22:40:17.471Z,100438.00
2018-12-11T22:42:45.671Z,100453.00
2018-12-11T22:45:13.936Z,100449.00
2018-12-11T22:47:42.127Z,100455.00
2018-12-11T22:50:12.530Z,100457.00
2018-12-11T22:52:40.796Z,100455.00
2018-12-11T22:55:08.981Z,100456.00
2018-12-11T22:57:37.256Z,100462.00
2018-12-11T23:00:08.841Z,100469.00
2018-12-11T23:02:37.022Z,100464.00
2018-12-11T23:05:05.609Z,100467.00
2018-12-11T23:07:33.837Z,100456.00
2018-12-11T23:10:02.526Z,100464.00
2018-12-11T23:12:30.731Z,100467.00
2018-12-11T23:14:58.967Z,100474.00
2018-12-11T23:17:27.238Z,100472.00
2018-12-11T23:19:55.434Z,100468.00
2018-12-11T23:22:23.633Z,100465.00
2018-12-11T23:24:52.100Z,100466.00
2018-12-11T23:27:20.332Z,100465.00
2018-12-11T23:29:48.524Z,100468.00
2018-12-11T23:32:16.713Z,100463.00
2018-12-11T23:34:44.959Z,100477.00
2018-12-11T23:37:13.228Z,100472.00
2018-12-11T23:39:41.392Z,100472.00
2018-12-11T23:42:09.604Z,100471.00
2018-12-11T23:44:37.760Z,100478.00
2018-12-11T23:47:05.990Z,100479.00
2018-12-11T23:49:34.196Z,100477.00
2018-12-11T23:52:03.497Z,100485.00
2018-12-11T23:54:31.679Z,100485.00
2018-12-11T23:57:00.051Z,100488.00
2018-12-11T23:59:29.323Z,100484.00
